createdAt,value
2023-03-20T00:00:36.064Z,54.12
2023-03-20T00:01:36.059Z,55.17
2023-03-20T00:02:36.090Z,54.33
2023-03-20T00:03:36.050Z,54.87
2023-03-20T00:04:36.123Z,54.51
2023-03-20T00:05:36.275Z,54.20
2023-03-20T00:06:36.054Z,53.78
2023-03-20T00:07:36.035Z,53.90
2023-03-20T00:08:36.041Z,53.83
2023-03-20T00:09:36.024Z,54.13
2023-03-20T00:10:36.032Z,54.38
2023-03-20T00:11:36.002Z,54.37
2023-03-20T00:12:36.016Z,54.20
2023-03-20T00:13:36.006Z,54.38
2023-03-20T00:14:35.985Z,54.34
2023-03-20T00:15:36.388Z,54.24
2023-03-20T00:16:36.031Z,53.93
2023-03-20T00:17:35.971Z,54.04
2023-03-20T00:18:35.959Z,54.15
2023-03-20T00:19:35.936Z,54.26
2023-03-20T00:20:36.288Z,54.24
2023-03-20T00:21:35.935Z,54.16
2023-03-20T00:22:35.957Z,54.03
2023-03-20T00:23:35.914Z,54.29
2023-03-20T00:24:35.930Z,54.33
2023-03-20T00:25:36.161Z,54.13
2023-03-20T00:26:35.892Z,54.06
2023-03-20T00:27:35.924Z,54.28
2023-03-20T00:28:35.955Z,54.17
2023-03-20T00:29:35.888Z,53.97
2023-03-20T00:30:35.866Z,54.11
2023-03-20T00:31:35.906Z,54.61
2023-03-20T00:32:35.903Z,54.81
2023-03-20T00:33:35.869Z,54.62
2023-03-20T00:34:35.975Z,54.49
2023-03-20T00:35:36.172Z,54.25
2023-03-20T00:36:35.888Z,53.92
2023-03-20T00:37:35.802Z,53.72
2023-03-20T00:38:35.856Z,53.66
2023-03-20T00:39:35.802Z,53.87
2023-03-20T00:40:35.847Z,55.08
2023-03-20T00:41:35.804Z,53.86
2023-03-20T00:42:35.792Z,54.21
2023-03-20T00:43:35.779Z,55.28
2023-03-20T00:44:35.790Z,53.85
2023-03-20T00:45:36.246Z,53.96
2023-03-20T00:46:35.834Z,54.15
2023-03-20T00:47:35.726Z,54.18
2023-03-20T00:48:35.748Z,56.53
2023-03-20T00:49:35.741Z,56.30
2023-03-20T00:50:35.723Z,54.44
2023-03-20T00:51:35.735Z,54.35
2023-03-20T00:52:35.963Z,54.38
2023-03-20T00:53:35.725Z,54.29
2023-03-20T00:54:35.682Z,53.91
2023-03-20T00:55:35.877Z,53.96
2023-03-20T00:56:35.675Z,53.90
2023-03-20T00:57:35.703Z,53.83
2023-03-20T00:58:35.714Z,54.13
2023-03-20T00:59:35.693Z,54.15
2023-03-20T01:00:35.673Z,54.17
2023-03-20T01:01:35.669Z,54.16
2023-03-20T01:02:35.678Z,54.18
2023-03-20T01:03:35.624Z,54.46
2023-03-20T01:04:35.656Z,54.19
2023-03-20T01:05:35.787Z,54.13
2023-03-20T01:06:35.620Z,54.15
2023-03-20T01:07:35.605Z,54.17
2023-03-20T01:08:35.579Z,54.56
2023-03-20T01:09:35.586Z,56.47
2023-03-20T01:10:35.604Z,54.19
2023-03-20T01:11:35.581Z,54.55
2023-03-20T01:12:35.560Z,57.07
2023-03-20T01:13:35.589Z,56.86
2023-03-20T01:14:35.562Z,54.67
2023-03-20T01:15:35.801Z,54.47
2023-03-20T01:16:35.669Z,54.60
2023-03-20T01:17:35.521Z,54.90
2023-03-20T01:18:35.525Z,54.60
2023-03-20T01:19:35.528Z,55.91
2023-03-20T01:20:35.512Z,55.28
2023-03-20T01:21:35.503Z,54.43
2023-03-20T01:22:35.532Z,54.57
2023-03-20T01:23:35.486Z,54.40
2023-03-20T01:24:35.469Z,54.42
2023-03-20T01:25:35.685Z,54.46
2023-03-20T01:26:35.624Z,54.37
2023-03-20T01:27:35.468Z,54.36
2023-03-20T01:28:35.524Z,55.93
2023-03-20T01:29:35.443Z,54.36
2023-03-20T01:30:35.436Z,54.22
2023-03-20T01:31:35.468Z,54.26
2023-03-20T01:32:35.477Z,54.26
2023-03-20T01:33:35.409Z,54.10
2023-03-20T01:34:35.442Z,53.87
2023-03-20T01:35:35.770Z,53.89
2023-03-20T01:36:35.372Z,54.18
2023-03-20T01:37:35.388Z,54.14
2023-03-20T01:38:35.410Z,54.35
2023-03-20T01:39:35.373Z,54.31
2023-03-20T01:40:35.404Z,54.34
2023-03-20T01:41:35.361Z,54.11
2023-03-20T01:42:35.332Z,54.17
2023-03-20T01:43:35.313Z,53.84
2023-03-20T01:44:35.340Z,53.88
2023-03-20T01:45:35.664Z,54.01
2023-03-20T01:46:35.349Z,53.99
2023-03-20T01:47:35.307Z,53.80
2023-03-20T01:48:35.304Z,53.77
2023-03-20T01:49:35.287Z,53.88
2023-03-20T01:50:35.274Z,54.13
2023-03-20T01:51:35.283Z,53.87
2023-03-20T01:52:35.531Z,53.94
2023-03-20T01:53:35.268Z,53.88
2023-03-20T01:54:35.263Z,53.84
2023-03-20T01:55:35.483Z,53.85
2023-03-20T01:56:35.232Z,54.26
2023-03-20T01:57:35.243Z,53.88
2023-03-20T01:58:35.276Z,53.98
2023-03-20T01:59:35.233Z,53.84
2023-03-20T02:00:35.213Z,53.80
2023-03-20T02:01:35.249Z,53.80
2023-03-20T02:02:35.206Z,53.93
2023-03-20T02:03:35.223Z,53.96
2023-03-20T02:04:35.229Z,53.92
2023-03-20T02:05:35.479Z,53.94
2023-03-20T02:06:35.174Z,53.96
2023-03-20T02:07:35.171Z,53.86
2023-03-20T02:08:35.179Z,54.09
2023-03-20T02:09:35.146Z,54.81
2023-03-20T02:10:35.206Z,53.84
2023-03-20T02:11:35.128Z,54.12
2023-03-20T02:12:35.129Z,54.01
2023-03-20T02:13:35.112Z,53.94
2023-03-20T02:14:35.115Z,54.04
2023-03-20T02:15:35.327Z,54.32
2023-03-20T02:16:35.137Z,54.31
2023-03-20T02:17:35.086Z,54.47
2023-03-20T02:18:35.087Z,54.61
2023-03-20T02:19:35.078Z,54.62
2023-03-20T02:20:35.083Z,54.64
2023-03-20T02:21:35.072Z,54.47
2023-03-20T02:22:35.108Z,54.28
2023-03-20T02:23:35.043Z,54.31
2023-03-20T02:24:35.021Z,54.28
2023-03-20T02:25:35.271Z,54.12
2023-03-20T02:26:35.016Z,54.16
2023-03-20T02:27:47.445Z,54.44
2023-03-20T02:28:36.076Z,54.19
2023-03-20T02:29:35.007Z,54.11
2023-03-20T02:30:35.019Z,54.40
2023-03-20T02:31:34.999Z,54.63
2023-03-20T02:32:35.034Z,54.49
2023-03-20T02:33:34.979Z,54.48
2023-03-20T02:34:35.031Z,54.19
2023-03-20T02:35:35.242Z,54.15
2023-03-20T02:36:34.950Z,55.24
2023-03-20T02:37:34.927Z,54.10
2023-03-20T02:38:34.962Z,55.22
2023-03-20T02:39:34.925Z,64.93
2023-03-20T02:40:34.940Z,55.86
2023-03-20T02:41:34.957Z,54.42
2023-03-20T02:42:34.916Z,54.95
2023-03-20T02:43:34.887Z,58.94
2023-03-20T02:44:34.889Z,71.19
2023-03-20T02:45:35.192Z,56.19
2023-03-20T02:46:34.987Z,54.71
2023-03-20T02:47:34.877Z,54.55
2023-03-20T02:48:34.848Z,54.72
2023-03-20T02:49:34.904Z,54.56
2023-03-20T02:50:34.842Z,54.56
2023-03-20T02:51:34.847Z,54.50
2023-03-20T02:52:34.888Z,54.45
2023-03-20T02:53:34.819Z,54.48
2023-03-20T02:54:34.833Z,54.45
2023-03-20T02:55:35.030Z,54.53
2023-03-20T02:56:34.792Z,54.46
2023-03-20T02:57:34.765Z,54.53
2023-03-20T02:58:35.397Z,54.45
2023-03-20T02:59:34.789Z,54.50
2023-03-20T03:00:34.774Z,54.33
2023-03-20T03:01:34.763Z,54.26
2023-03-20T03:02:34.784Z,54.07
2023-03-20T03:03:34.720Z,54.35
2023-03-20T03:04:34.765Z,56.11
2023-03-20T03:05:34.924Z,54.84
2023-03-20T03:06:34.740Z,54.28
2023-03-20T03:07:34.717Z,54.31
2023-03-20T03:08:34.710Z,54.22
2023-03-20T03:09:34.714Z,55.34
2023-03-20T03:10:34.733Z,54.22
2023-03-20T03:11:34.688Z,54.91
2023-03-20T03:12:34.691Z,54.13
2023-03-20T03:13:34.672Z,54.16
2023-03-20T03:14:34.679Z,54.28
2023-03-20T03:15:35.061Z,54.45
2023-03-20T03:16:34.682Z,54.45
2023-03-20T03:17:34.637Z,54.21
2023-03-20T03:18:34.637Z,57.13
2023-03-20T03:19:34.632Z,54.25
2023-03-20T03:20:34.618Z,54.19
2023-03-20T03:21:34.612Z,54.28
2023-03-20T03:22:34.658Z,54.38
2023-03-20T03:23:34.616Z,54.80
2023-03-20T03:24:41.362Z,54.73
2023-03-20T03:25:35.804Z,57.10
2023-03-20T03:26:34.609Z,54.31
2023-03-20T03:27:34.573Z,54.27
2023-03-20T03:28:34.592Z,54.38
2023-03-20T03:29:34.561Z,54.50
2023-03-20T03:30:34.536Z,55.83
2023-03-20T03:31:34.642Z,54.50
2023-03-20T03:32:34.654Z,55.63
2023-03-20T03:33:34.526Z,54.56
2023-03-20T03:34:34.541Z,54.63
2023-03-20T03:35:34.913Z,54.60
2023-03-20T03:36:34.500Z,54.63
2023-03-20T03:37:34.508Z,55.32
2023-03-20T03:38:34.503Z,55.90
2023-03-20T03:39:34.477Z,55.03
2023-03-20T03:40:34.514Z,55.01
2023-03-20T03:41:34.461Z,54.98
2023-03-20T03:42:34.473Z,54.91
2023-03-20T03:43:34.466Z,54.62
2023-03-20T03:44:34.452Z,54.99
2023-03-20T03:45:34.714Z,55.03
2023-03-20T03:46:34.546Z,55.14
2023-03-20T03:47:34.423Z,55.20
2023-03-20T03:48:34.422Z,57.52
2023-03-20T03:49:34.396Z,58.10
2023-03-20T03:50:34.420Z,55.17
2023-03-20T03:51:34.373Z,55.51
2023-03-20T03:52:34.439Z,55.86
2023-03-20T03:53:34.469Z,57.07
2023-03-20T03:54:34.375Z,57.05
2023-03-20T03:55:34.845Z,55.73
2023-03-20T03:56:34.332Z,55.55
2023-03-20T03:57:34.339Z,55.46
2023-03-20T03:58:34.401Z,57.65
2023-03-20T03:59:34.358Z,55.04
2023-03-20T04:00:34.326Z,55.38
2023-03-20T04:01:34.324Z,55.73
2023-03-20T04:02:34.321Z,56.11
2023-03-20T04:03:34.304Z,55.89
2023-03-20T04:04:34.565Z,56.16
2023-03-20T04:05:34.526Z,56.91
2023-03-20T04:06:34.340Z,64.81
2023-03-20T04:07:34.287Z,64.78
2023-03-20T04:08:34.280Z,64.17
2023-03-20T04:09:34.241Z,64.31
2023-03-20T04:10:34.275Z,62.58
2023-03-20T04:11:34.257Z,62.74
2023-03-20T04:12:34.225Z,60.82
2023-03-20T04:13:34.228Z,56.35
2023-03-20T04:14:34.242Z,56.23
2023-03-20T04:15:34.426Z,56.69
2023-03-20T04:16:34.315Z,56.39
2023-03-20T04:17:34.211Z,56.57
2023-03-20T04:18:34.190Z,56.18
2023-03-20T04:19:34.191Z,56.35
2023-03-20T04:20:34.175Z,56.35
2023-03-20T04:21:34.196Z,55.96
2023-03-20T04:22:34.230Z,55.92
2023-03-20T04:23:34.199Z,56.23
2023-03-20T04:24:34.177Z,56.01
2023-03-20T04:25:34.369Z,57.98
2023-03-20T04:26:34.150Z,56.57
2023-03-20T04:27:34.138Z,57.67
2023-03-20T04:28:34.162Z,59.10
2023-03-20T04:29:34.123Z,57.14
2023-03-20T04:30:34.092Z,56.56
2023-03-20T04:31:34.162Z,56.81
2023-03-20T04:32:34.109Z,58.10
2023-03-20T04:33:34.087Z,57.13
2023-03-20T04:34:34.128Z,56.96
2023-03-20T04:35:34.233Z,60.30
2023-03-20T04:36:34.085Z,58.10
2023-03-20T04:37:34.073Z,57.74
2023-03-20T04:38:34.119Z,57.27
2023-03-20T04:39:34.069Z,58.86
2023-03-20T04:40:34.080Z,58.33
2023-03-20T04:41:34.091Z,57.60
2023-03-20T04:42:34.020Z,57.20
2023-03-20T04:43:34.017Z,58.20
2023-03-20T04:44:33.999Z,56.52
2023-03-20T04:45:34.267Z,58.38
2023-03-20T04:46:34.054Z,59.44
2023-03-20T04:47:33.999Z,58.67
2023-03-20T04:48:33.981Z,58.91
2023-03-20T04:49:33.966Z,58.70
2023-03-20T04:50:33.983Z,57.25
2023-03-20T04:51:33.953Z,58.55
2023-03-20T04:52:34.015Z,58.19
2023-03-20T04:53:33.933Z,60.20
2023-03-20T04:54:33.920Z,58.73
2023-03-20T04:55:34.252Z,57.54
2023-03-20T04:56:33.912Z,60.87
2023-03-20T04:57:33.908Z,57.79
2023-03-20T04:58:33.963Z,57.19
2023-03-20T04:59:33.892Z,57.28
2023-03-20T05:00:33.899Z,56.49
2023-03-20T05:01:33.903Z,58.19
2023-03-20T05:02:33.877Z,58.50
2023-03-20T05:03:33.861Z,57.15
2023-03-20T05:04:33.976Z,57.51
2023-03-20T05:05:34.170Z,57.69
2023-03-20T05:06:33.839Z,59.95
2023-03-20T05:07:33.827Z,56.03
2023-03-20T05:08:33.840Z,55.30
2023-03-20T05:09:33.820Z,55.85
2023-03-20T05:10:34.150Z,58.59
2023-03-20T05:11:33.818Z,59.21
2023-03-20T05:12:33.798Z,59.35
2023-03-20T05:13:33.809Z,60.08
2023-03-20T05:14:33.784Z,59.89
2023-03-20T05:15:33.945Z,59.88
2023-03-20T05:16:33.832Z,60.82
2023-03-20T05:17:33.742Z,61.03
2023-03-20T05:18:33.774Z,60.80
2023-03-20T05:19:33.748Z,61.43
2023-03-20T05:20:33.725Z,58.74
2023-03-20T05:21:33.738Z,59.85
2023-03-20T05:22:33.753Z,59.22
2023-03-20T05:23:33.732Z,60.44
2023-03-20T05:24:40.866Z,58.70
2023-03-20T05:25:34.951Z,61.66
2023-03-20T05:26:33.705Z,59.63
2023-03-20T05:27:33.733Z,58.12
2023-03-20T05:28:33.697Z,57.88
2023-03-20T05:29:33.677Z,58.60
2023-03-20T05:30:33.710Z,60.85
2023-03-20T05:31:33.691Z,59.37
2023-03-20T05:32:33.663Z,59.64
2023-03-20T05:33:34.351Z,59.83
2023-03-20T05:34:33.705Z,59.34
2023-03-20T05:35:33.820Z,60.44
2023-03-20T05:36:33.616Z,58.80
2023-03-20T05:37:33.626Z,59.17
2023-03-20T05:38:33.606Z,56.55
2023-03-20T05:39:33.600Z,60.24
2023-03-20T05:40:33.647Z,57.60
2023-03-20T05:41:33.604Z,57.38
2023-03-20T05:42:33.582Z,59.70
2023-03-20T05:43:33.569Z,56.69
2023-03-20T05:44:33.590Z,58.23
2023-03-20T05:45:33.771Z,57.64
2023-03-20T05:46:33.595Z,58.58
2023-03-20T05:47:33.548Z,59.45
2023-03-20T05:48:33.562Z,56.92
2023-03-20T05:49:33.526Z,58.22
2023-03-20T05:50:33.516Z,59.63
2023-03-20T05:51:33.514Z,56.17
2023-03-20T05:52:33.575Z,56.96
2023-03-20T05:53:33.504Z,58.64
2023-03-20T05:54:33.477Z,57.77
2023-03-20T05:55:33.570Z,58.81
2023-03-20T05:56:33.531Z,57.85
2023-03-20T05:57:33.498Z,58.09
2023-03-20T05:58:33.500Z,60.28
2023-03-20T05:59:33.498Z,57.71
2023-03-20T06:00:33.499Z,59.53
2023-03-20T06:01:33.471Z,61.85
2023-03-20T06:02:33.511Z,61.75
2023-03-20T06:03:33.522Z,56.83
2023-03-20T06:04:33.487Z,57.23
2023-03-20T06:05:33.642Z,60.08
2023-03-20T06:06:33.428Z,57.78
2023-03-20T06:07:33.406Z,58.62
2023-03-20T06:08:33.570Z,61.10
2023-03-20T06:09:33.432Z,61.17
2023-03-20T06:10:33.508Z,58.91
2023-03-20T06:11:35.552Z,59.62
2023-03-20T06:12:33.393Z,58.89
2023-03-20T06:13:33.391Z,59.17
2023-03-20T06:14:33.413Z,59.69
2023-03-20T06:15:37.926Z,57.32
2023-03-20T06:16:33.432Z,59.28
2023-03-20T06:17:33.351Z,59.32
2023-03-20T06:18:33.373Z,60.06
2023-03-20T06:19:33.330Z,58.85
2023-03-20T06:20:33.351Z,61.32
2023-03-20T06:21:33.309Z,60.51
2023-03-20T06:22:33.369Z,58.51
2023-03-20T06:23:33.305Z,57.98
2023-03-20T06:24:33.291Z,56.52
2023-03-20T06:25:33.403Z,58.37
2023-03-20T06:26:33.289Z,62.63
2023-03-20T06:27:33.292Z,58.28
2023-03-20T06:28:33.320Z,59.13
2023-03-20T06:29:33.225Z,62.12
2023-03-20T06:30:33.231Z,59.27
2023-03-20T06:31:33.369Z,60.50
2023-03-20T06:32:33.266Z,60.66
2023-03-20T06:33:33.210Z,61.67
2023-03-20T06:34:33.256Z,59.12
2023-03-20T06:35:33.291Z,58.91
2023-03-20T06:36:33.190Z,59.06
2023-03-20T06:37:33.167Z,57.83
2023-03-20T06:38:33.183Z,58.98
2023-03-20T06:39:33.181Z,57.80
2023-03-20T06:40:37.422Z,57.95
2023-03-20T06:41:34.981Z,60.32
2023-03-20T06:42:33.145Z,59.87
2023-03-20T06:43:33.129Z,62.06
2023-03-20T06:44:33.167Z,58.92
2023-03-20T06:45:33.197Z,62.10
2023-03-20T06:46:39.091Z,59.51
2023-03-20T06:47:33.104Z,60.95
2023-03-20T06:48:33.087Z,59.08
2023-03-20T06:49:33.097Z,60.26
2023-03-20T06:50:33.067Z,60.21
2023-03-20T06:51:33.068Z,61.73
2023-03-20T06:52:33.108Z,59.79
2023-03-20T06:53:33.056Z,60.42
2023-03-20T06:54:33.051Z,58.41
2023-03-20T06:55:33.079Z,59.27
2023-03-20T06:56:33.035Z,59.25
2023-03-20T06:57:33.067Z,59.43
2023-03-20T06:58:33.092Z,62.05
2023-03-20T06:59:33.006Z,57.43
2023-03-20T07:00:33.067Z,60.49
2023-03-20T07:01:33.041Z,61.69
2023-03-20T07:02:33.002Z,60.80
2023-03-20T07:03:33.007Z,59.75
2023-03-20T07:04:33.050Z,60.07
2023-03-20T07:05:33.018Z,59.14
2023-03-20T07:06:32.959Z,58.93
2023-03-20T07:07:32.970Z,59.37
2023-03-20T07:08:42.677Z,60.53
2023-03-20T07:09:32.975Z,59.05
2023-03-20T07:10:32.993Z,61.92
2023-03-20T07:11:32.943Z,60.27
2023-03-20T07:12:32.928Z,60.47
2023-03-20T07:13:32.939Z,58.94
2023-03-20T07:14:32.927Z,60.84
2023-03-20T07:15:32.904Z,59.30
2023-03-20T07:16:33.057Z,58.39
2023-03-20T07:17:32.914Z,59.50
2023-03-20T07:18:32.886Z,61.04
2023-03-20T07:19:32.899Z,59.14
2023-03-20T07:20:32.874Z,61.69
2023-03-20T07:21:32.882Z,59.82
2023-03-20T07:22:32.922Z,59.78
2023-03-20T07:23:32.856Z,58.24
2023-03-20T07:24:32.844Z,60.28
2023-03-20T07:25:42.125Z,58.55
2023-03-20T07:26:33.837Z,62.12
2023-03-20T07:27:32.827Z,59.03
2023-03-20T07:28:32.865Z,62.47
2023-03-20T07:29:32.810Z,61.82
2023-03-20T07:30:32.807Z,61.14
2023-03-20T07:31:34.433Z,58.84
2023-03-20T07:32:32.859Z,58.88
2023-03-20T07:33:32.766Z,61.55
2023-03-20T07:34:32.785Z,61.02
2023-03-20T07:35:32.845Z,69.72
2023-03-20T07:36:32.756Z,59.75
2023-03-20T07:37:32.724Z,62.24
2023-03-20T07:38:32.738Z,59.54
2023-03-20T07:39:32.741Z,57.43
2023-03-20T07:40:32.764Z,58.62
2023-03-20T07:41:32.736Z,58.47
2023-03-20T07:42:32.702Z,63.95
2023-03-20T07:43:32.691Z,62.25
2023-03-20T07:44:32.692Z,57.83
2023-03-20T07:45:32.744Z,59.00
2023-03-20T07:46:32.712Z,58.89
2023-03-20T07:47:32.693Z,56.68
2023-03-20T07:48:32.643Z,58.90
2023-03-20T07:49:32.667Z,61.39
2023-03-20T07:50:32.664Z,60.53
2023-03-20T07:51:32.652Z,59.05
2023-03-20T07:52:32.693Z,58.83
2023-03-20T07:53:32.614Z,58.02
2023-03-20T07:54:32.612Z,59.20
2023-03-20T07:55:32.618Z,64.46
2023-03-20T07:56:32.597Z,60.66
2023-03-20T07:57:32.593Z,62.52
2023-03-20T07:58:32.646Z,64.20
2023-03-20T07:59:32.595Z,63.25
2023-03-20T08:00:32.584Z,62.51
2023-03-20T08:01:32.550Z,64.03
2023-03-20T08:02:32.546Z,61.51
2023-03-20T08:03:32.711Z,57.32
2023-03-20T08:04:32.566Z,57.48
2023-03-20T08:05:32.557Z,59.38
2023-03-20T08:06:32.524Z,60.48
2023-03-20T08:07:32.520Z,59.04
2023-03-20T08:08:32.525Z,57.93
2023-03-20T08:09:32.510Z,60.06
2023-03-20T08:10:32.551Z,59.68
2023-03-20T08:11:34.276Z,59.85
2023-03-20T08:12:32.492Z,58.48
2023-03-20T08:13:32.482Z,59.60
2023-03-20T08:14:32.462Z,61.44
2023-03-20T08:15:32.463Z,58.93
2023-03-20T08:16:32.930Z,58.90
2023-03-20T08:17:32.485Z,60.06
2023-03-20T08:18:32.461Z,59.01
2023-03-20T08:19:32.470Z,57.67
2023-03-20T08:20:32.410Z,58.55
2023-03-20T08:21:32.451Z,60.96
2023-03-20T08:22:32.468Z,59.28
2023-03-20T08:23:32.438Z,59.04
2023-03-20T08:24:32.394Z,58.86
2023-03-20T08:25:32.431Z,59.71
2023-03-20T08:26:32.372Z,58.37
2023-03-20T08:27:32.366Z,59.97
2023-03-20T08:28:46.722Z,58.54
2023-03-20T08:29:33.356Z,57.55
2023-03-20T08:30:32.398Z,58.62
2023-03-20T08:31:32.369Z,58.45
2023-03-20T08:32:32.355Z,58.68
2023-03-20T08:33:32.341Z,56.46
2023-03-20T08:34:32.391Z,59.15
2023-03-20T08:35:33.630Z,59.06
2023-03-20T08:36:32.305Z,59.01
2023-03-20T08:37:32.293Z,58.56
2023-03-20T08:38:32.280Z,57.40
2023-03-20T08:39:32.289Z,58.12
2023-03-20T08:40:32.322Z,59.06
2023-03-20T08:41:32.256Z,59.55
2023-03-20T08:42:32.281Z,58.83
2023-03-20T08:43:32.243Z,61.41
2023-03-20T08:44:32.258Z,58.97
2023-03-20T08:45:32.245Z,57.82
2023-03-20T08:46:32.300Z,59.65
2023-03-20T08:47:32.439Z,59.16
2023-03-20T08:48:32.209Z,57.15
2023-03-20T08:49:32.192Z,60.01
2023-03-20T08:50:32.205Z,59.83
2023-03-20T08:51:32.193Z,59.36
2023-03-20T08:52:32.255Z,59.42
2023-03-20T08:53:32.171Z,59.22
2023-03-20T08:54:32.159Z,57.26
2023-03-20T08:55:32.167Z,59.77
2023-03-20T08:56:32.153Z,58.94
2023-03-20T08:57:32.132Z,57.54
2023-03-20T08:58:32.218Z,59.57
2023-03-20T08:59:32.128Z,58.64
2023-03-20T09:00:32.129Z,57.21
2023-03-20T09:01:47.955Z,57.99
2023-03-20T09:02:33.184Z,60.13
2023-03-20T09:03:32.098Z,57.68
2023-03-20T09:04:32.175Z,58.92
2023-03-20T09:05:33.771Z,61.35
2023-03-20T09:06:32.062Z,59.85
2023-03-20T09:07:32.072Z,58.53
2023-03-20T09:08:32.068Z,58.85
2023-03-20T09:09:32.072Z,57.80
2023-03-20T09:10:32.081Z,58.29
2023-03-20T09:11:32.061Z,59.03
2023-03-20T09:12:32.023Z,58.08
2023-03-20T09:13:32.018Z,57.33
2023-03-20T09:14:32.015Z,57.15
2023-03-20T09:15:32.058Z,58.03
2023-03-20T09:16:32.096Z,59.04
2023-03-20T09:17:31.992Z,58.24
2023-03-20T09:18:31.979Z,60.05
2023-03-20T09:19:31.998Z,58.60
2023-03-20T09:20:31.944Z,63.80
2023-03-20T09:21:31.961Z,57.87
2023-03-20T09:22:32.326Z,59.81
2023-03-20T09:23:31.962Z,58.36
2023-03-20T09:24:31.940Z,58.72
2023-03-20T09:25:31.923Z,59.57
2023-03-20T09:26:31.970Z,56.10
2023-03-20T09:27:31.897Z,58.13
2023-03-20T09:28:31.919Z,57.51
2023-03-20T09:29:31.899Z,56.99
2023-03-20T09:30:31.880Z,57.51
2023-03-20T09:31:31.965Z,60.29
2023-03-20T09:32:31.866Z,57.33
2023-03-20T09:33:31.884Z,57.34
2023-03-20T09:34:31.924Z,58.52
2023-03-20T09:35:31.916Z,58.00
2023-03-20T09:36:31.861Z,57.21
2023-03-20T09:37:31.829Z,57.99
2023-03-20T09:38:31.849Z,58.82
2023-03-20T09:39:31.849Z,60.03
2023-03-20T09:40:31.857Z,57.84
2023-03-20T09:41:31.807Z,58.03
2023-03-20T09:42:31.811Z,57.61
2023-03-20T09:43:31.789Z,57.46
2023-03-20T09:44:31.801Z,57.66
2023-03-20T09:45:31.773Z,58.52
2023-03-20T09:46:31.863Z,58.79
2023-03-20T09:47:31.777Z,58.23
2023-03-20T09:48:31.788Z,57.79
2023-03-20T09:49:31.741Z,60.48
2023-03-20T09:50:31.758Z,59.88
2023-03-20T09:51:31.734Z,57.70
2023-03-20T09:52:31.799Z,56.73
2023-03-20T09:53:31.718Z,56.46
2023-03-20T09:54:40.449Z,57.78
2023-03-20T09:55:32.748Z,58.06
2023-03-20T09:56:31.741Z,57.72
2023-03-20T09:57:31.671Z,59.90
2023-03-20T09:58:31.740Z,57.66
2023-03-20T09:59:31.671Z,58.04
2023-03-20T10:00:31.671Z,57.78
2023-03-20T10:01:31.718Z,58.85
2023-03-20T10:02:31.672Z,57.97
2023-03-20T10:03:31.633Z,60.09
2023-03-20T10:04:31.713Z,58.56
2023-03-20T10:05:31.622Z,58.71
2023-03-20T10:06:31.598Z,57.11
2023-03-20T10:07:31.637Z,56.66
2023-03-20T10:08:31.594Z,56.06
2023-03-20T10:09:31.595Z,56.24
2023-03-20T10:10:31.678Z,56.49
2023-03-20T10:11:31.606Z,57.03
2023-03-20T10:12:31.645Z,59.20
2023-03-20T10:13:31.599Z,59.15
2023-03-20T10:14:31.581Z,59.80
2023-03-20T10:15:31.580Z,57.28
2023-03-20T10:16:31.629Z,58.22
2023-03-20T10:17:31.594Z,57.81
2023-03-20T10:18:31.528Z,58.45
2023-03-20T10:19:31.542Z,56.91
2023-03-20T10:20:31.541Z,58.15
2023-03-20T10:21:31.540Z,58.58
2023-03-20T10:22:31.577Z,58.17
2023-03-20T10:23:31.499Z,57.77
2023-03-20T10:24:31.501Z,59.79
2023-03-20T10:25:31.478Z,59.92
2023-03-20T10:26:31.499Z,57.21
2023-03-20T10:27:31.498Z,56.99
2023-03-20T10:28:31.872Z,55.84
2023-03-20T10:29:31.488Z,56.39
2023-03-20T10:30:31.497Z,58.21
2023-03-20T10:31:31.479Z,56.73
2023-03-20T10:32:31.439Z,58.76
2023-03-20T10:33:31.440Z,58.40
2023-03-20T10:34:31.603Z,58.86
2023-03-20T10:35:31.516Z,56.48
2023-03-20T10:36:31.399Z,57.59
2023-03-20T10:37:31.484Z,57.71
2023-03-20T10:38:31.398Z,58.15
2023-03-20T10:39:31.407Z,58.76
2023-03-20T10:40:31.419Z,56.18
2023-03-20T10:41:31.364Z,56.62
2023-03-20T10:42:31.382Z,54.08
2023-03-20T10:43:31.359Z,58.59
2023-03-20T10:44:31.374Z,56.57
2023-03-20T10:45:31.372Z,56.24
2023-03-20T10:46:31.404Z,57.25
2023-03-20T10:47:31.328Z,57.44
2023-03-20T10:48:31.557Z,57.63
2023-03-20T10:49:31.328Z,56.57
2023-03-20T10:50:31.316Z,55.65
2023-03-20T10:51:31.276Z,56.04
2023-03-20T10:52:31.336Z,56.60
2023-03-20T10:53:31.323Z,58.02
2023-03-20T10:54:31.300Z,59.67
2023-03-20T10:55:31.280Z,59.08
2023-03-20T10:56:31.263Z,55.74
2023-03-20T10:57:31.294Z,57.99
2023-03-20T10:58:31.280Z,59.41
2023-03-20T10:59:31.239Z,57.82
2023-03-20T11:00:31.227Z,58.40
2023-03-20T11:01:31.793Z,59.96
2023-03-20T11:02:31.235Z,59.53
2023-03-20T11:03:31.218Z,58.90
2023-03-20T11:04:31.284Z,59.73
2023-03-20T11:05:31.183Z,59.71
2023-03-20T11:06:31.199Z,58.77
2023-03-20T11:07:31.163Z,58.91
2023-03-20T11:08:31.168Z,57.81
2023-03-20T11:09:31.260Z,56.30
2023-03-20T11:10:31.207Z,55.18
2023-03-20T11:11:31.141Z,56.24
2023-03-20T11:12:31.131Z,56.75
2023-03-20T11:13:31.124Z,58.93
2023-03-20T11:14:31.121Z,57.76
2023-03-20T11:15:31.149Z,56.71
2023-03-20T11:16:31.232Z,58.40
2023-03-20T11:17:31.142Z,58.32
2023-03-20T11:18:31.130Z,57.76
2023-03-20T11:19:31.085Z,58.06
2023-03-20T11:20:31.089Z,58.38
2023-03-20T11:21:31.089Z,57.49
2023-03-20T11:22:31.106Z,56.38
2023-03-20T11:23:31.065Z,56.31
2023-03-20T11:24:31.086Z,57.26
2023-03-20T11:25:31.112Z,58.05
2023-03-20T11:26:31.085Z,55.74
2023-03-20T11:27:32.075Z,56.28
2023-03-20T11:28:31.069Z,57.35
2023-03-20T11:29:31.028Z,59.86
2023-03-20T11:30:31.047Z,57.43
2023-03-20T11:31:31.028Z,55.76
2023-03-20T11:32:30.990Z,56.75
2023-03-20T11:33:30.996Z,56.86
2023-03-20T11:34:31.684Z,56.03
2023-03-20T11:35:30.963Z,57.02
2023-03-20T11:36:30.949Z,56.75
2023-03-20T11:37:30.998Z,58.07
2023-03-20T11:38:30.963Z,58.48
2023-03-20T11:39:30.945Z,56.12
2023-03-20T11:40:30.989Z,56.22
2023-03-20T11:41:30.930Z,56.45
2023-03-20T11:42:30.954Z,57.54
2023-03-20T11:43:30.929Z,58.13
2023-03-20T11:44:30.930Z,55.17
2023-03-20T11:45:30.953Z,58.62
2023-03-20T11:46:30.974Z,57.38
2023-03-20T11:47:30.877Z,58.70
2023-03-20T11:48:30.897Z,57.49
2023-03-20T11:49:30.880Z,55.97
2023-03-20T11:50:30.856Z,56.58
2023-03-20T11:51:30.880Z,57.57
2023-03-20T11:52:30.928Z,57.70
2023-03-20T11:53:30.820Z,55.71
2023-03-20T11:54:30.873Z,57.90
2023-03-20T11:55:30.840Z,56.17
2023-03-20T11:56:30.823Z,59.90
2023-03-20T11:57:30.896Z,57.11
2023-03-20T11:58:30.841Z,56.80
2023-03-20T11:59:30.801Z,57.89
2023-03-20T12:00:30.819Z,57.22
2023-03-20T12:01:30.866Z,58.38
2023-03-20T12:02:30.813Z,57.73
2023-03-20T12:03:30.844Z,56.87
2023-03-20T12:04:30.813Z,57.08
2023-03-20T12:05:30.748Z,58.54
2023-03-20T12:06:30.741Z,57.88
2023-03-20T12:07:30.748Z,58.27
2023-03-20T12:08:30.803Z,57.87
2023-03-20T12:09:30.723Z,58.59
2023-03-20T12:10:30.784Z,58.48
2023-03-20T12:11:30.724Z,56.98
2023-03-20T12:12:30.703Z,56.50
2023-03-20T12:13:30.717Z,56.83
2023-03-20T12:14:30.699Z,56.10
2023-03-20T12:15:30.773Z,55.30
2023-03-20T12:16:30.731Z,57.77
2023-03-20T12:17:30.665Z,59.46
2023-03-20T12:18:30.663Z,59.45
2023-03-20T12:19:30.674Z,58.06
2023-03-20T12:20:30.648Z,56.69
2023-03-20T12:21:30.642Z,56.74
2023-03-20T12:22:30.744Z,56.62
2023-03-20T12:23:30.637Z,56.04
2023-03-20T12:24:30.603Z,57.10
2023-03-20T12:25:30.655Z,58.24
2023-03-20T12:26:30.613Z,57.48
2023-03-20T12:27:31.873Z,57.87
2023-03-20T12:28:30.678Z,57.49
2023-03-20T12:29:30.599Z,58.49
2023-03-20T12:30:30.650Z,57.94
2023-03-20T12:31:30.690Z,57.83
2023-03-20T12:32:30.570Z,59.10
2023-03-20T12:33:30.552Z,58.70
2023-03-20T12:34:30.603Z,58.32
2023-03-20T12:35:30.548Z,56.64
2023-03-20T12:36:30.548Z,58.61
2023-03-20T12:37:30.633Z,59.11
2023-03-20T12:38:31.609Z,58.72
2023-03-20T12:39:30.502Z,56.47
2023-03-20T12:40:30.583Z,57.43
2023-03-20T12:41:30.500Z,57.48
2023-03-20T12:42:30.511Z,57.45
2023-03-20T12:43:30.566Z,58.84
2023-03-20T12:44:30.477Z,58.52
2023-03-20T12:45:30.558Z,58.34
2023-03-20T12:46:30.599Z,55.69
2023-03-20T12:47:30.476Z,57.29
2023-03-20T12:48:30.454Z,57.98
2023-03-20T12:49:30.447Z,59.27
2023-03-20T12:50:30.426Z,56.81
2023-03-20T12:51:30.438Z,58.56
2023-03-20T12:52:30.466Z,59.44